sensor_id;sensor_type;location;lat;lon;timestamp;temperature;humidity
69626;DHT22;56847;51.984;5.088;2023-01-10T00:01:18;8.30;79.90
69626;DHT22;56847;51.984;5.088;2023-01-10T00:03:45;8.30;80.10
69626;DHT22;56847;51.984;5.088;2023-01-10T00:06:12;8.30;80.20
69626;DHT22;56847;51.984;5.088;2023-01-10T00:08:39;8.30;80.30
69626;DHT22;56847;51.984;5.088;2023-01-10T00:11:06;8.40;80.30
69626;DHT22;56847;51.984;5.088;2023-01-10T00:13:52;8.40;80.20
69626;DHT22;56847;51.984;5.088;2023-01-10T00:16:19;8.50;80.20
69626;DHT22;56847;51.984;5.088;2023-01-10T00:18:46;8.50;80.20
69626;DHT22;56847;51.984;5.088;2023-01-10T00:21:13;8.50;80.30
69626;DHT22;56847;51.984;5.088;2023-01-10T00:23:41;8.50;80.40
69626;DHT22;56847;51.984;5.088;2023-01-10T00:26:09;8.60;80.40
69626;DHT22;56847;51.984;5.088;2023-01-10T00:28:37;8.60;80.40
69626;DHT22;56847;51.984;5.088;2023-01-10T00:31:05;8.60;80.60
69626;DHT22;56847;51.984;5.088;2023-01-10T00:33:33;8.70;80.60
69626;DHT22;56847;51.984;5.088;2023-01-10T00:36:01;8.70;80.50
69626;DHT22;56847;51.984;5.088;2023-01-10T00:38:29;8.80;80.60
69626;DHT22;56847;51.984;5.088;2023-01-10T00:40:57;8.80;80.70
69626;DHT22;56847;51.984;5.088;2023-01-10T00:43:24;8.80;80.40
69626;DHT22;56847;51.984;5.088;2023-01-10T00:46:09;8.80;80.10
69626;DHT22;56847;51.984;5.088;2023-01-10T00:48:37;8.80;80.40
69626;DHT22;56847;51.984;5.088;2023-01-10T00:51:04;8.80;80.30
69626;DHT22;56847;51.984;5.088;2023-01-10T00:53:31;8.90;80.50
69626;DHT22;56847;51.984;5.088;2023-01-10T00:55:58;8.90;80.50
69626;DHT22;56847;51.984;5.088;2023-01-10T00:58:25;9.00;80.40
69626;DHT22;56847;51.984;5.088;2023-01-10T01:00:52;9.00;80.10
69626;DHT22;56847;51.984;5.088;2023-01-10T01:03:22;9.00;80.00
69626;DHT22;56847;51.984;5.088;2023-01-10T01:05:49;9.10;80.10
69626;DHT22;56847;51.984;5.088;2023-01-10T01:08:17;9.10;80.20
69626;DHT22;56847;51.984;5.088;2023-01-10T01:10:45;9.10;80.10
69626;DHT22;56847;51.984;5.088;2023-01-10T01:13:18;9.10;80.40
69626;DHT22;56847;51.984;5.088;2023-01-10T01:15:45;9.10;80.60
69626;DHT22;56847;51.984;5.088;2023-01-10T01:18:15;9.10;80.80
69626;DHT22;56847;51.984;5.088;2023-01-10T01:20:46;9.10;80.80
69626;DHT22;56847;51.984;5.088;2023-01-10T01:23:14;9.10;80.90
69626;DHT22;56847;51.984;5.088;2023-01-10T01:25:41;9.10;81.10
69626;DHT22;56847;51.984;5.088;2023-01-10T01:28:12;9.00;81.30
69626;DHT22;56847;51.984;5.088;2023-01-10T01:30:39;9.00;81.50
69626;DHT22;56847;51.984;5.088;2023-01-10T01:33:06;9.00;81.80
69626;DHT22;56847;51.984;5.088;2023-01-10T01:35:33;8.90;82.00
69626;DHT22;56847;51.984;5.088;2023-01-10T01:38:00;9.00;82.20
69626;DHT22;56847;51.984;5.088;2023-01-10T01:40:27;9.00;82.30
69626;DHT22;56847;51.984;5.088;2023-01-10T01:42:54;9.00;82.40
69626;DHT22;56847;51.984;5.088;2023-01-10T01:48:02;9.00;82.60
69626;DHT22;56847;51.984;5.088;2023-01-10T01:50:46;9.00;82.60
69626;DHT22;56847;51.984;5.088;2023-01-10T01:55:51;9.00;82.70
69626;DHT22;56847;51.984;5.088;2023-01-10T01:58:24;9.00;82.70
69626;DHT22;56847;51.984;5.088;2023-01-10T02:00:53;9.00;82.80
69626;DHT22;56847;51.984;5.088;2023-01-10T02:03:20;9.00;82.90
69626;DHT22;56847;51.984;5.088;2023-01-10T02:05:47;9.00;82.80
69626;DHT22;56847;51.984;5.088;2023-01-10T02:08:15;9.10;82.80
69626;DHT22;56847;51.984;5.088;2023-01-10T02:10:56;9.10;82.80
69626;DHT22;56847;51.984;5.088;2023-01-10T02:13:25;9.10;82.80
69626;DHT22;56847;51.984;5.088;2023-01-10T02:15:53;9.20;82.90
69626;DHT22;56847;51.984;5.088;2023-01-10T02:18:21;9.20;82.80
69626;DHT22;56847;51.984;5.088;2023-01-10T02:21:17;9.20;82.80
69626;DHT22;56847;51.984;5.088;2023-01-10T02:24:09;9.20;82.70
69626;DHT22;56847;51.984;5.088;2023-01-10T02:27:19;9.20;82.70
69626;DHT22;56847;51.984;5.088;2023-01-10T02:40:51;9.20;82.70
69626;DHT22;56847;51.984;5.088;2023-01-10T02:43:28;9.20;82.60
69626;DHT22;56847;51.984;5.088;2023-01-10T02:46:06;9.20;82.50
69626;DHT22;56847;51.984;5.088;2023-01-10T02:48:34;9.20;82.50
69626;DHT22;56847;51.984;5.088;2023-01-10T02:51:16;9.20;82.60
69626;DHT22;56847;51.984;5.088;2023-01-10T02:53:48;9.30;82.60
69626;DHT22;56847;51.984;5.088;2023-01-10T02:56:27;9.30;82.50
69626;DHT22;56847;51.984;5.088;2023-01-10T03:01:54;9.30;82.20
69626;DHT22;56847;51.984;5.088;2023-01-10T03:10:17;9.40;82.50
69626;DHT22;56847;51.984;5.088;2023-01-10T03:13:05;9.40;82.50
69626;DHT22;56847;51.984;5.088;2023-01-10T03:15:37;9.50;82.40
69626;DHT22;56847;51.984;5.088;2023-01-10T03:18:27;9.50;82.50
69626;DHT22;56847;51.984;5.088;2023-01-10T03:20:58;9.50;82.20
69626;DHT22;56847;51.984;5.088;2023-01-10T03:23:25;9.50;82.00
69626;DHT22;56847;51.984;5.088;2023-01-10T03:25:54;9.50;81.80
69626;DHT22;56847;51.984;5.088;2023-01-10T03:28:48;9.50;81.70
69626;DHT22;56847;51.984;5.088;2023-01-10T03:31:25;9.50;81.90
69626;DHT22;56847;51.984;5.088;2023-01-10T03:33:54;9.40;81.90
69626;DHT22;56847;51.984;5.088;2023-01-10T03:36:30;9.50;81.80
69626;DHT22;56847;51.984;5.088;2023-01-10T03:39:06;9.50;81.60
69626;DHT22;56847;51.984;5.088;2023-01-10T03:41:48;9.50;81.70
69626;DHT22;56847;51.984;5.088;2023-01-10T03:44:26;9.50;81.60
69626;DHT22;56847;51.984;5.088;2023-01-10T03:47:31;9.40;81.20
69626;DHT22;56847;51.984;5.088;2023-01-10T03:50:05;9.40;81.20
69626;DHT22;56847;51.984;5.088;2023-01-10T03:52:34;9.30;81.20
69626;DHT22;56847;51.984;5.088;2023-01-10T03:55:03;9.30;81.30
69626;DHT22;56847;51.984;5.088;2023-01-10T03:57:33;9.30;81.10
69626;DHT22;56847;51.984;5.088;2023-01-10T03:59:59;9.30;81.30
69626;DHT22;56847;51.984;5.088;2023-01-10T04:02:30;9.30;81.40
69626;DHT22;56847;51.984;5.088;2023-01-10T04:04:57;9.30;81.60
69626;DHT22;56847;51.984;5.088;2023-01-10T04:07:25;9.30;81.50
69626;DHT22;56847;51.984;5.088;2023-01-10T04:09:52;9.30;81.20
69626;DHT22;56847;51.984;5.088;2023-01-10T04:12:19;9.30;81.50
69626;DHT22;56847;51.984;5.088;2023-01-10T04:14:46;9.30;81.60
69626;DHT22;56847;51.984;5.088;2023-01-10T04:17:14;9.30;81.50
69626;DHT22;56847;51.984;5.088;2023-01-10T04:19:42;9.30;81.60
69626;DHT22;56847;51.984;5.088;2023-01-10T04:22:09;9.30;81.50
69626;DHT22;56847;51.984;5.088;2023-01-10T04:24:36;9.30;81.60
69626;DHT22;56847;51.984;5.088;2023-01-10T04:27:04;9.30;81.50
69626;DHT22;56847;51.984;5.088;2023-01-10T04:29:33;9.20;81.40
69626;DHT22;56847;51.984;5.088;2023-01-10T04:32:00;9.20;81.30
69626;DHT22;56847;51.984;5.088;2023-01-10T04:34:27;9.10;81.30
69626;DHT22;56847;51.984;5.088;2023-01-10T04:36:54;9.10;81.40
69626;DHT22;56847;51.984;5.088;2023-01-10T04:39:21;9.10;81.40
69626;DHT22;56847;51.984;5.088;2023-01-10T04:41:48;9.00;81.30
69626;DHT22;56847;51.984;5.088;2023-01-10T04:44:15;9.00;81.30
69626;DHT22;56847;51.984;5.088;2023-01-10T04:46:42;8.90;81.30
69626;DHT22;56847;51.984;5.088;2023-01-10T04:49:09;8.90;81.30
69626;DHT22;56847;51.984;5.088;2023-01-10T04:51:36;8.80;81.40
69626;DHT22;56847;51.984;5.088;2023-01-10T04:54:03;8.70;81.40
69626;DHT22;56847;51.984;5.088;2023-01-10T04:56:30;8.70;81.40
69626;DHT22;56847;51.984;5.088;2023-01-10T04:58:57;8.60;81.30
69626;DHT22;56847;51.984;5.088;2023-01-10T05:01:24;8.60;81.30
69626;DHT22;56847;51.984;5.088;2023-01-10T05:03:54;8.60;81.50
69626;DHT22;56847;51.984;5.088;2023-01-10T05:06:22;8.50;81.50
69626;DHT22;56847;51.984;5.088;2023-01-10T05:08:49;8.50;81.60
69626;DHT22;56847;51.984;5.088;2023-01-10T05:11:16;8.40;81.70
69626;DHT22;56847;51.984;5.088;2023-01-10T05:13:43;8.40;81.80
69626;DHT22;56847;51.984;5.088;2023-01-10T05:16:13;8.40;81.90
69626;DHT22;56847;51.984;5.088;2023-01-10T05:18:40;8.40;82.20
69626;DHT22;56847;51.984;5.088;2023-01-10T05:21:11;8.40;82.70
69626;DHT22;56847;51.984;5.088;2023-01-10T05:23:39;8.50;83.00
69626;DHT22;56847;51.984;5.088;2023-01-10T05:26:18;8.50;83.20
69626;DHT22;56847;51.984;5.088;2023-01-10T05:28:45;8.60;83.40
69626;DHT22;56847;51.984;5.088;2023-01-10T05:31:16;8.70;83.40
69626;DHT22;56847;51.984;5.088;2023-01-10T05:33:49;8.70;83.50
69626;DHT22;56847;51.984;5.088;2023-01-10T05:36:17;8.80;83.50
69626;DHT22;56847;51.984;5.088;2023-01-10T05:38:45;8.80;83.40
69626;DHT22;56847;51.984;5.088;2023-01-10T05:41:12;8.90;83.50
69626;DHT22;56847;51.984;5.088;2023-01-10T05:43:42;8.90;83.60
69626;DHT22;56847;51.984;5.088;2023-01-10T05:46:09;9.00;83.60
69626;DHT22;56847;51.984;5.088;2023-01-10T05:48:36;9.00;83.50
69626;DHT22;56847;51.984;5.088;2023-01-10T05:51:03;9.10;83.60
69626;DHT22;56847;51.984;5.088;2023-01-10T05:53:30;9.10;83.50
69626;DHT22;56847;51.984;5.088;2023-01-10T05:56:01;9.10;83.40
69626;DHT22;56847;51.984;5.088;2023-01-10T05:58:28;9.20;83.20
69626;DHT22;56847;51.984;5.088;2023-01-10T06:00:56;9.20;83.10
69626;DHT22;56847;51.984;5.088;2023-01-10T06:03:24;9.20;82.90
69626;DHT22;56847;51.984;5.088;2023-01-10T06:05:55;9.20;82.90
69626;DHT22;56847;51.984;5.088;2023-01-10T06:08:24;9.20;83.20
69626;DHT22;56847;51.984;5.088;2023-01-10T06:10:50;9.20;83.00
69626;DHT22;56847;51.984;5.088;2023-01-10T06:13:17;9.10;83.00
69626;DHT22;56847;51.984;5.088;2023-01-10T06:15:44;9.20;83.00
69626;DHT22;56847;51.984;5.088;2023-01-10T06:18:12;9.20;83.10
69626;DHT22;56847;51.984;5.088;2023-01-10T06:20:42;9.20;83.10
69626;DHT22;56847;51.984;5.088;2023-01-10T06:23:12;9.20;83.20
69626;DHT22;56847;51.984;5.088;2023-01-10T06:25:39;9.20;83.20
69626;DHT22;56847;51.984;5.088;2023-01-10T06:28:08;9.20;83.30
69626;DHT22;56847;51.984;5.088;2023-01-10T06:30:36;9.30;83.20
69626;DHT22;56847;51.984;5.088;2023-01-10T06:33:07;9.30;83.20
69626;DHT22;56847;51.984;5.088;2023-01-10T06:35:35;9.30;83.10
69626;DHT22;56847;51.984;5.088;2023-01-10T06:38:02;9.30;83.10
69626;DHT22;56847;51.984;5.088;2023-01-10T06:40:32;9.30;83.10
69626;DHT22;56847;51.984;5.088;2023-01-10T06:42:59;9.30;82.80
69626;DHT22;56847;51.984;5.088;2023-01-10T06:45:26;9.20;82.70
69626;DHT22;56847;51.984;5.088;2023-01-10T06:47:53;9.20;82.40
69626;DHT22;56847;51.984;5.088;2023-01-10T06:50:20;9.10;82.20
69626;DHT22;56847;51.984;5.088;2023-01-10T06:52:57;9.00;82.30
69626;DHT22;56847;51.984;5.088;2023-01-10T06:55:25;9.00;82.70
69626;DHT22;56847;51.984;5.088;2023-01-10T06:57:59;9.00;83.20
69626;DHT22;56847;51.984;5.088;2023-01-10T07:00:28;9.00;83.20
69626;DHT22;56847;51.984;5.088;2023-01-10T07:02:57;9.00;83.10
69626;DHT22;56847;51.984;5.088;2023-01-10T07:05:25;9.10;83.10
69626;DHT22;56847;51.984;5.088;2023-01-10T07:07:52;9.10;82.70
69626;DHT22;56847;51.984;5.088;2023-01-10T07:10:19;9.10;82.80
69626;DHT22;56847;51.984;5.088;2023-01-10T07:12:46;9.10;82.60
69626;DHT22;56847;51.984;5.088;2023-01-10T07:15:13;9.10;82.40
69626;DHT22;56847;51.984;5.088;2023-01-10T07:17:40;9.00;82.30
69626;DHT22;56847;51.984;5.088;2023-01-10T07:20:07;9.00;82.30
69626;DHT22;56847;51.984;5.088;2023-01-10T07:22:34;9.00;82.10
69626;DHT22;56847;51.984;5.088;2023-01-10T07:25:01;8.90;82.00
69626;DHT22;56847;51.984;5.088;2023-01-10T07:27:32;8.80;81.80
69626;DHT22;56847;51.984;5.088;2023-01-10T07:29:59;8.80;81.80
69626;DHT22;56847;51.984;5.088;2023-01-10T07:32:26;8.70;81.70
69626;DHT22;56847;51.984;5.088;2023-01-10T07:34:53;8.60;81.50
69626;DHT22;56847;51.984;5.088;2023-01-10T07:37:20;8.60;81.60
69626;DHT22;56847;51.984;5.088;2023-01-10T07:39:47;8.50;81.70
69626;DHT22;56847;51.984;5.088;2023-01-10T07:42:14;8.40;81.90
69626;DHT22;56847;51.984;5.088;2023-01-10T07:44:41;8.40;82.30
69626;DHT22;56847;51.984;5.088;2023-01-10T07:47:08;8.40;82.20
69626;DHT22;56847;51.984;5.088;2023-01-10T07:49:39;8.40;82.00
69626;DHT22;56847;51.984;5.088;2023-01-10T07:52:13;8.40;82.10
69626;DHT22;56847;51.984;5.088;2023-01-10T07:54:40;8.40;82.20
69626;DHT22;56847;51.984;5.088;2023-01-10T07:57:07;8.40;82.20
69626;DHT22;56847;51.984;5.088;2023-01-10T07:59:36;8.30;82.20
69626;DHT22;56847;51.984;5.088;2023-01-10T08:02:03;8.30;82.50
69626;DHT22;56847;51.984;5.088;2023-01-10T08:04:30;8.40;82.80
69626;DHT22;56847;51.984;5.088;2023-01-10T08:06:57;8.40;82.50
69626;DHT22;56847;51.984;5.088;2023-01-10T08:09:27;8.50;82.70
69626;DHT22;56847;51.984;5.088;2023-01-10T08:12:02;8.50;82.80
69626;DHT22;56847;51.984;5.088;2023-01-10T08:14:29;8.60;82.80
69626;DHT22;56847;51.984;5.088;2023-01-10T08:16:56;8.60;82.60
69626;DHT22;56847;51.984;5.088;2023-01-10T08:19:23;8.70;82.70
69626;DHT22;56847;51.984;5.088;2023-01-10T08:21:53;8.70;82.80
69626;DHT22;56847;51.984;5.088;2023-01-10T08:24:20;8.80;82.60
69626;DHT22;56847;51.984;5.088;2023-01-10T08:26:51;8.80;82.40
69626;DHT22;56847;51.984;5.088;2023-01-10T08:29:21;8.80;82.40
69626;DHT22;56847;51.984;5.088;2023-01-10T08:31:51;8.80;81.90
69626;DHT22;56847;51.984;5.088;2023-01-10T08:34:24;8.80;81.90
69626;DHT22;56847;51.984;5.088;2023-01-10T08:36:52;8.80;82.10
69626;DHT22;56847;51.984;5.088;2023-01-10T08:39:22;8.80;82.10
69626;DHT22;56847;51.984;5.088;2023-01-10T08:41:56;8.80;82.10
69626;DHT22;56847;51.984;5.088;2023-01-10T08:44:26;8.80;81.90
69626;DHT22;56847;51.984;5.088;2023-01-10T08:46:53;8.80;81.80
69626;DHT22;56847;51.984;5.088;2023-01-10T08:49:22;8.90;81.90
69626;DHT22;56847;51.984;5.088;2023-01-10T08:51:52;8.90;81.80
69626;DHT22;56847;51.984;5.088;2023-01-10T08:54:26;8.90;82.00
69626;DHT22;56847;51.984;5.088;2023-01-10T08:56:53;8.90;81.90
69626;DHT22;56847;51.984;5.088;2023-01-10T08:59:28;8.90;81.80
69626;DHT22;56847;51.984;5.088;2023-01-10T09:02:02;8.90;81.80
69626;DHT22;56847;51.984;5.088;2023-01-10T09:04:30;8.90;81.70
69626;DHT22;56847;51.984;5.088;2023-01-10T09:07:01;8.90;81.90
69626;DHT22;56847;51.984;5.088;2023-01-10T09:09:28;8.90;81.90
69626;DHT22;56847;51.984;5.088;2023-01-10T09:15:34;9.00;81.70
69626;DHT22;56847;51.984;5.088;2023-01-10T09:18:42;9.00;81.60
69626;DHT22;56847;51.984;5.088;2023-01-10T09:21:09;9.00;81.80
69626;DHT22;56847;51.984;5.088;2023-01-10T09:23:39;9.00;81.60
69626;DHT22;56847;51.984;5.088;2023-01-10T09:26:06;9.00;81.40
69626;DHT22;56847;51.984;5.088;2023-01-10T09:28:46;9.00;81.30
69626;DHT22;56847;51.984;5.088;2023-01-10T09:31:15;9.00;81.40
69626;DHT22;56847;51.984;5.088;2023-01-10T09:33:42;9.00;81.40
69626;DHT22;56847;51.984;5.088;2023-01-10T09:36:15;9.00;81.30
69626;DHT22;56847;51.984;5.088;2023-01-10T09:38:43;9.00;81.00
69626;DHT22;56847;51.984;5.088;2023-01-10T09:47:30;9.10;81.00
69626;DHT22;56847;51.984;5.088;2023-01-10T09:50:27;9.10;80.80
69626;DHT22;56847;51.984;5.088;2023-01-10T09:53:16;9.10;80.40
69626;DHT22;56847;51.984;5.088;2023-01-10T09:55:50;9.10;80.40
69626;DHT22;56847;51.984;5.088;2023-01-10T09:58:27;9.10;80.50
69626;DHT22;56847;51.984;5.088;2023-01-10T10:01:08;9.20;80.50
69626;DHT22;56847;51.984;5.088;2023-01-10T10:07:01;9.20;80.60
69626;DHT22;56847;51.984;5.088;2023-01-10T10:09:42;9.20;80.50
69626;DHT22;56847;51.984;5.088;2023-01-10T10:15:08;9.20;80.60
69626;DHT22;56847;51.984;5.088;2023-01-10T10:24:15;9.30;80.00
69626;DHT22;56847;51.984;5.088;2023-01-10T10:32:45;9.30;79.60
69626;DHT22;56847;51.984;5.088;2023-01-10T10:35:29;9.30;80.00
69626;DHT22;56847;51.984;5.088;2023-01-10T10:38:13;9.30;79.70
69626;DHT22;56847;51.984;5.088;2023-01-10T10:40:47;9.30;79.70
69626;DHT22;56847;51.984;5.088;2023-01-10T10:45:47;9.30;79.30
69626;DHT22;56847;51.984;5.088;2023-01-10T10:51:28;9.40;79.50
69626;DHT22;56847;51.984;5.088;2023-01-10T10:54:01;9.40;79.40
69626;DHT22;56847;51.984;5.088;2023-01-10T10:56:32;9.40;79.50
69626;DHT22;56847;51.984;5.088;2023-01-10T10:59:03;9.40;79.50
69626;DHT22;56847;51.984;5.088;2023-01-10T11:01:32;9.50;79.20
69626;DHT22;56847;51.984;5.088;2023-01-10T11:04:02;9.50;78.70
69626;DHT22;56847;51.984;5.088;2023-01-10T11:06:35;9.40;78.90
69626;DHT22;56847;51.984;5.088;2023-01-10T11:09:04;9.50;79.00
69626;DHT22;56847;51.984;5.088;2023-01-10T11:11:44;9.50;79.10
69626;DHT22;56847;51.984;5.088;2023-01-10T11:14:12;9.60;79.40
69626;DHT22;56847;51.984;5.088;2023-01-10T11:16:43;9.60;78.80
69626;DHT22;56847;51.984;5.088;2023-01-10T11:19:20;9.60;78.70
69626;DHT22;56847;51.984;5.088;2023-01-10T11:21:55;9.60;78.80
69626;DHT22;56847;51.984;5.088;2023-01-10T11:24:33;9.60;78.70
69626;DHT22;56847;51.984;5.088;2023-01-10T11:27:26;9.60;78.30
69626;DHT22;56847;51.984;5.088;2023-01-10T11:29:57;9.60;78.50
69626;DHT22;56847;51.984;5.088;2023-01-10T11:32:54;9.70;78.80
69626;DHT22;56847;51.984;5.088;2023-01-10T11:35:35;9.70;78.70
69626;DHT22;56847;51.984;5.088;2023-01-10T11:38:04;9.70;78.40
69626;DHT22;56847;51.984;5.088;2023-01-10T11:40:36;9.60;78.70
69626;DHT22;56847;51.984;5.088;2023-01-10T11:46:13;9.70;78.60
69626;DHT22;56847;51.984;5.088;2023-01-10T11:48:58;9.70;78.40
69626;DHT22;56847;51.984;5.088;2023-01-10T11:51:35;9.70;78.90
69626;DHT22;56847;51.984;5.088;2023-01-10T11:54:10;9.70;78.70
69626;DHT22;56847;51.984;5.088;2023-01-10T11:56:39;9.70;78.70
69626;DHT22;56847;51.984;5.088;2023-01-10T11:59:13;9.80;78.40
69626;DHT22;56847;51.984;5.088;2023-01-10T12:01:44;9.80;78.60
69626;DHT22;56847;51.984;5.088;2023-01-10T12:04:19;9.90;78.70
69626;DHT22;56847;51.984;5.088;2023-01-10T12:06:51;9.80;78.30
69626;DHT22;56847;51.984;5.088;2023-01-10T12:10:03;9.90;78.60
69626;DHT22;56847;51.984;5.088;2023-01-10T12:12:34;9.90;78.10
69626;DHT22;56847;51.984;5.088;2023-01-10T12:15:30;9.90;78.10
69626;DHT22;56847;51.984;5.088;2023-01-10T12:18:00;9.90;78.40
69626;DHT22;56847;51.984;5.088;2023-01-10T12:20:33;9.90;77.70
69626;DHT22;56847;51.984;5.088;2023-01-10T12:23:06;9.90;78.10
69626;DHT22;56847;51.984;5.088;2023-01-10T12:25:41;9.90;78.10
69626;DHT22;56847;51.984;5.088;2023-01-10T12:28:16;9.90;78.20
69626;DHT22;56847;51.984;5.088;2023-01-10T12:30:44;9.90;78.30
69626;DHT22;56847;51.984;5.088;2023-01-10T12:33:36;9.90;78.10
69626;DHT22;56847;51.984;5.088;2023-01-10T12:44:46;9.90;78.60
69626;DHT22;56847;51.984;5.088;2023-01-10T12:47:52;9.90;78.60
69626;DHT22;56847;51.984;5.088;2023-01-10T12:51:17;9.90;78.70
69626;DHT22;56847;51.984;5.088;2023-01-10T12:53:57;10.00;78.70
69626;DHT22;56847;51.984;5.088;2023-01-10T12:56:27;10.00;78.70
69626;DHT22;56847;51.984;5.088;2023-01-10T12:59:05;10.00;78.30
69626;DHT22;56847;51.984;5.088;2023-01-10T13:01:37;10.00;78.40
69626;DHT22;56847;51.984;5.088;2023-01-10T13:04:16;10.00;78.40
69626;DHT22;56847;51.984;5.088;2023-01-10T13:06:49;10.10;78.20
69626;DHT22;56847;51.984;5.088;2023-01-10T13:09:22;10.10;78.10
69626;DHT22;56847;51.984;5.088;2023-01-10T13:22:47;10.10;77.90
69626;DHT22;56847;51.984;5.088;2023-01-10T13:25:28;10.10;77.50
69626;DHT22;56847;51.984;5.088;2023-01-10T13:28:07;10.10;77.50
69626;DHT22;56847;51.984;5.088;2023-01-10T13:30:40;10.10;77.30
69626;DHT22;56847;51.984;5.088;2023-01-10T13:33:24;10.20;77.20
69626;DHT22;56847;51.984;5.088;2023-01-10T13:36:15;10.20;77.10
69626;DHT22;56847;51.984;5.088;2023-01-10T13:38:48;10.20;77.20
69626;DHT22;56847;51.984;5.088;2023-01-10T13:41:19;10.20;77.30
69626;DHT22;56847;51.984;5.088;2023-01-10T13:44:18;10.20;77.40
69626;DHT22;56847;51.984;5.088;2023-01-10T13:46:48;10.20;76.70
69626;DHT22;56847;51.984;5.088;2023-01-10T13:49:42;10.20;76.80
69626;DHT22;56847;51.984;5.088;2023-01-10T13:52:46;10.20;76.70
69626;DHT22;56847;51.984;5.088;2023-01-10T13:55:27;10.10;77.00
69626;DHT22;56847;51.984;5.088;2023-01-10T13:57:57;10.00;77.20
69626;DHT22;56847;51.984;5.088;2023-01-10T14:03:55;9.80;77.80
69626;DHT22;56847;51.984;5.088;2023-01-10T14:09:01;9.70;78.50
69626;DHT22;56847;51.984;5.088;2023-01-10T14:11:53;9.70;78.80
69626;DHT22;56847;51.984;5.088;2023-01-10T14:14:34;9.70;79.00
69626;DHT22;56847;51.984;5.088;2023-01-10T14:17:30;9.60;79.20
69626;DHT22;56847;51.984;5.088;2023-01-10T14:20:17;9.60;79.50
69626;DHT22;56847;51.984;5.088;2023-01-10T14:25:27;9.60;79.80
69626;DHT22;56847;51.984;5.088;2023-01-10T14:28:02;9.60;80.00
69626;DHT22;56847;51.984;5.088;2023-01-10T14:30:33;9.60;80.10
69626;DHT22;56847;51.984;5.088;2023-01-10T14:33:14;9.60;80.20
69626;DHT22;56847;51.984;5.088;2023-01-10T14:35:50;9.60;80.20
69626;DHT22;56847;51.984;5.088;2023-01-10T14:38:34;9.60;80.30
69626;DHT22;56847;51.984;5.088;2023-01-10T14:41:28;9.50;80.30
69626;DHT22;56847;51.984;5.088;2023-01-10T14:44:46;9.50;80.60
69626;DHT22;56847;51.984;5.088;2023-01-10T14:46:55;9.50;80.90
69626;DHT22;56847;51.984;5.088;2023-01-10T14:49:26;9.50;81.00
69626;DHT22;56847;51.984;5.088;2023-01-10T14:52:20;9.40;81.10
69626;DHT22;56847;51.984;5.088;2023-01-10T14:55:12;9.40;81.30
69626;DHT22;56847;51.984;5.088;2023-01-10T14:57:40;9.40;81.40
69626;DHT22;56847;51.984;5.088;2023-01-10T15:00:15;9.40;81.60
69626;DHT22;56847;51.984;5.088;2023-01-10T15:02:47;9.40;81.70
69626;DHT22;56847;51.984;5.088;2023-01-10T15:05:23;9.40;81.80
69626;DHT22;56847;51.984;5.088;2023-01-10T15:07:55;9.40;82.00
69626;DHT22;56847;51.984;5.088;2023-01-10T15:10:41;9.40;82.00
69626;DHT22;56847;51.984;5.088;2023-01-10T15:13:25;9.40;82.00
69626;DHT22;56847;51.984;5.088;2023-01-10T15:15:56;9.40;82.10
69626;DHT22;56847;51.984;5.088;2023-01-10T15:18:40;9.40;82.10
69626;DHT22;56847;51.984;5.088;2023-01-10T15:21:12;9.30;82.20
69626;DHT22;56847;51.984;5.088;2023-01-10T15:23:44;9.30;82.30
69626;DHT22;56847;51.984;5.088;2023-01-10T15:29:09;9.30;82.60
69626;DHT22;56847;51.984;5.088;2023-01-10T15:31:39;9.30;82.50
69626;DHT22;56847;51.984;5.088;2023-01-10T15:34:16;9.30;82.60
69626;DHT22;56847;51.984;5.088;2023-01-10T15:36:53;9.30;82.60
69626;DHT22;56847;51.984;5.088;2023-01-10T15:39:23;9.30;82.70
69626;DHT22;56847;51.984;5.088;2023-01-10T15:42:10;9.30;82.70
69626;DHT22;56847;51.984;5.088;2023-01-10T15:44:44;9.30;82.60
69626;DHT22;56847;51.984;5.088;2023-01-10T15:47:41;9.30;82.70
69626;DHT22;56847;51.984;5.088;2023-01-10T15:50:30;9.20;82.90
69626;DHT22;56847;51.984;5.088;2023-01-10T15:53:05;9.20;83.10
69626;DHT22;56847;51.984;5.088;2023-01-10T15:55:52;9.20;83.30
69626;DHT22;56847;51.984;5.088;2023-01-10T15:58:33;9.20;83.40
69626;DHT22;56847;51.984;5.088;2023-01-10T16:01:02;9.20;83.40
69626;DHT22;56847;51.984;5.088;2023-01-10T16:03:36;9.10;83.70
69626;DHT22;56847;51.984;5.088;2023-01-10T16:06:04;9.10;83.70
69626;DHT22;56847;51.984;5.088;2023-01-10T16:08:37;9.10;83.80
69626;DHT22;56847;51.984;5.088;2023-01-10T16:11:07;9.10;83.90
69626;DHT22;56847;51.984;5.088;2023-01-10T16:13:43;9.10;83.90
69626;DHT22;56847;51.984;5.088;2023-01-10T16:16:16;9.10;83.90
69626;DHT22;56847;51.984;5.088;2023-01-10T16:18:46;9.10;84.00
69626;DHT22;56847;51.984;5.088;2023-01-10T16:21:13;9.10;84.00
69626;DHT22;56847;51.984;5.088;2023-01-10T16:23:42;9.10;84.20
69626;DHT22;56847;51.984;5.088;2023-01-10T16:26:12;9.10;84.20
69626;DHT22;56847;51.984;5.088;2023-01-10T16:28:40;9.10;84.20
69626;DHT22;56847;51.984;5.088;2023-01-10T16:31:14;9.10;84.30
69626;DHT22;56847;51.984;5.088;2023-01-10T16:33:53;9.10;84.40
69626;DHT22;56847;51.984;5.088;2023-01-10T16:36:24;9.10;84.50
69626;DHT22;56847;51.984;5.088;2023-01-10T16:39:15;9.10;84.50
69626;DHT22;56847;51.984;5.088;2023-01-10T16:42:13;9.10;84.50
69626;DHT22;56847;51.984;5.088;2023-01-10T16:45:00;9.10;84.40
69626;DHT22;56847;51.984;5.088;2023-01-10T16:47:26;9.10;84.60
69626;DHT22;56847;51.984;5.088;2023-01-10T16:49:54;9.10;84.70
69626;DHT22;56847;51.984;5.088;2023-01-10T16:52:24;9.10;84.70
69626;DHT22;56847;51.984;5.088;2023-01-10T16:54:51;9.10;84.80
69626;DHT22;56847;51.984;5.088;2023-01-10T16:57:19;9.10;84.70
69626;DHT22;56847;51.984;5.088;2023-01-10T16:59:45;9.10;84.80
69626;DHT22;56847;51.984;5.088;2023-01-10T17:02:15;9.10;84.80
69626;DHT22;56847;51.984;5.088;2023-01-10T17:04:44;9.10;84.70
69626;DHT22;56847;51.984;5.088;2023-01-10T17:07:12;9.10;84.80
69626;DHT22;56847;51.984;5.088;2023-01-10T17:09:38;9.10;84.90
69626;DHT22;56847;51.984;5.088;2023-01-10T17:12:11;9.10;85.10
69626;DHT22;56847;51.984;5.088;2023-01-10T17:14:39;9.10;85.10
69626;DHT22;56847;51.984;5.088;2023-01-10T17:17:06;9.10;85.30
69626;DHT22;56847;51.984;5.088;2023-01-10T17:19:33;9.10;85.10
69626;DHT22;56847;51.984;5.088;2023-01-10T17:22:00;9.20;85.10
69626;DHT22;56847;51.984;5.088;2023-01-10T17:24:27;9.10;85.20
69626;DHT22;56847;51.984;5.088;2023-01-10T17:26:55;9.20;85.30
69626;DHT22;56847;51.984;5.088;2023-01-10T17:29:22;9.20;85.30
69626;DHT22;56847;51.984;5.088;2023-01-10T17:31:50;9.20;85.20
69626;DHT22;56847;51.984;5.088;2023-01-10T17:34:17;9.20;85.20
69626;DHT22;56847;51.984;5.088;2023-01-10T17:36:43;9.30;85.20
69626;DHT22;56847;51.984;5.088;2023-01-10T17:39:11;9.30;85.30
69626;DHT22;56847;51.984;5.088;2023-01-10T17:41:38;9.30;85.30
69626;DHT22;56847;51.984;5.088;2023-01-10T17:44:05;9.30;85.40
69626;DHT22;56847;51.984;5.088;2023-01-10T17:46:32;9.30;85.40
69626;DHT22;56847;51.984;5.088;2023-01-10T17:49:00;9.30;85.40
69626;DHT22;56847;51.984;5.088;2023-01-10T17:51:27;9.40;85.40
69626;DHT22;56847;51.984;5.088;2023-01-10T17:53:55;9.40;85.50